sensor_id;sensor_type;location;lat;lon;timestamp;temperature;humidity
57026;DHT22;43961;52.940;6.834;2023-07-20T00:00:49;15.40;99.90
57026;DHT22;43961;52.940;6.834;2023-07-20T00:03:19;15.40;99.90
57026;DHT22;43961;52.940;6.834;2023-07-20T00:05:51;15.40;99.90
57026;DHT22;43961;52.940;6.834;2023-07-20T00:08:18;15.40;99.90
57026;DHT22;43961;52.940;6.834;2023-07-20T00:10:44;15.30;99.90
57026;DHT22;43961;52.940;6.834;2023-07-20T00:13:11;15.50;99.90
57026;DHT22;43961;52.940;6.834;2023-07-20T00:15:37;15.40;99.90
57026;DHT22;43961;52.940;6.834;2023-07-20T00:18:04;15.50;99.90
57026;DHT22;43961;52.940;6.834;2023-07-20T00:20:29;15.20;99.90
57026;DHT22;43961;52.940;6.834;2023-07-20T00:22:55;15.20;99.90
57026;DHT22;43961;52.940;6.834;2023-07-20T00:25:23;15.30;99.90
57026;DHT22;43961;52.940;6.834;2023-07-20T00:28:14;15.20;99.90
57026;DHT22;43961;52.940;6.834;2023-07-20T00:30:40;15.20;99.90
57026;DHT22;43961;52.940;6.834;2023-07-20T00:33:11;15.30;99.90
57026;DHT22;43961;52.940;6.834;2023-07-20T00:38:49;15.40;99.90
57026;DHT22;43961;52.940;6.834;2023-07-20T00:41:15;15.50;99.90
57026;DHT22;43961;52.940;6.834;2023-07-20T00:43:40;15.40;99.90
57026;DHT22;43961;52.940;6.834;2023-07-20T00:46:07;15.40;99.90
57026;DHT22;43961;52.940;6.834;2023-07-20T00:48:33;15.20;99.90
57026;DHT22;43961;52.940;6.834;2023-07-20T00:51:00;15.40;99.90
57026;DHT22;43961;52.940;6.834;2023-07-20T00:53:27;15.10;99.90
57026;DHT22;43961;52.940;6.834;2023-07-20T00:55:52;15.10;99.90
57026;DHT22;43961;52.940;6.834;2023-07-20T00:58:18;15.10;99.90
57026;DHT22;43961;52.940;6.834;2023-07-20T01:00:44;15.10;99.90
57026;DHT22;43961;52.940;6.834;2023-07-20T01:03:10;15.30;99.90
57026;DHT22;43961;52.940;6.834;2023-07-20T01:06:18;15.20;99.90
57026;DHT22;43961;52.940;6.834;2023-07-20T01:11:49;15.10;99.90
57026;DHT22;43961;52.940;6.834;2023-07-20T01:14:20;15.00;99.90
57026;DHT22;43961;52.940;6.834;2023-07-20T01:16:45;15.00;99.90
57026;DHT22;43961;52.940;6.834;2023-07-20T01:19:13;15.20;99.90
57026;DHT22;43961;52.940;6.834;2023-07-20T01:22:02;15.00;99.90
57026;DHT22;43961;52.940;6.834;2023-07-20T01:25:07;15.20;99.90
57026;DHT22;43961;52.940;6.834;2023-07-20T01:30:52;15.00;99.90
57026;DHT22;43961;52.940;6.834;2023-07-20T01:33:21;14.90;99.90
57026;DHT22;43961;52.940;6.834;2023-07-20T01:35:52;14.80;99.90
57026;DHT22;43961;52.940;6.834;2023-07-20T01:38:18;14.80;99.90
57026;DHT22;43961;52.940;6.834;2023-07-20T01:40:45;14.90;99.90
57026;DHT22;43961;52.940;6.834;2023-07-20T01:43:11;14.80;99.90
57026;DHT22;43961;52.940;6.834;2023-07-20T01:45:37;14.90;99.90
57026;DHT22;43961;52.940;6.834;2023-07-20T01:48:03;14.90;99.90
57026;DHT22;43961;52.940;6.834;2023-07-20T01:50:29;14.70;99.90
57026;DHT22;43961;52.940;6.834;2023-07-20T01:52:55;14.80;99.90
57026;DHT22;43961;52.940;6.834;2023-07-20T01:55:21;14.60;99.90
57026;DHT22;43961;52.940;6.834;2023-07-20T01:57:47;14.50;99.90
57026;DHT22;43961;52.940;6.834;2023-07-20T02:00:13;14.50;99.90
57026;DHT22;43961;52.940;6.834;2023-07-20T02:02:39;14.50;99.90
57026;DHT22;43961;52.940;6.834;2023-07-20T02:05:04;14.60;99.90
57026;DHT22;43961;52.940;6.834;2023-07-20T02:07:31;14.40;99.90
57026;DHT22;43961;52.940;6.834;2023-07-20T02:09:56;14.30;99.90
57026;DHT22;43961;52.940;6.834;2023-07-20T02:12:22;14.30;99.90
57026;DHT22;43961;52.940;6.834;2023-07-20T02:14:48;14.20;99.90
57026;DHT22;43961;52.940;6.834;2023-07-20T02:17:15;14.20;99.90
57026;DHT22;43961;52.940;6.834;2023-07-20T02:19:41;14.20;99.90
57026;DHT22;43961;52.940;6.834;2023-07-20T02:22:07;14.10;99.90
57026;DHT22;43961;52.940;6.834;2023-07-20T02:24:33;13.80;99.90
57026;DHT22;43961;52.940;6.834;2023-07-20T02:26:59;13.90;99.90
57026;DHT22;43961;52.940;6.834;2023-07-20T02:29:25;13.90;99.90
57026;DHT22;43961;52.940;6.834;2023-07-20T02:32:06;13.70;99.90
57026;DHT22;43961;52.940;6.834;2023-07-20T02:38:03;13.80;99.90
57026;DHT22;43961;52.940;6.834;2023-07-20T02:40:29;13.50;99.90
57026;DHT22;43961;52.940;6.834;2023-07-20T02:42:55;13.40;99.90
57026;DHT22;43961;52.940;6.834;2023-07-20T02:45:21;13.40;99.90
57026;DHT22;43961;52.940;6.834;2023-07-20T02:47:46;13.50;99.90
57026;DHT22;43961;52.940;6.834;2023-07-20T02:50:12;13.40;99.90
57026;DHT22;43961;52.940;6.834;2023-07-20T02:52:39;13.40;99.90
57026;DHT22;43961;52.940;6.834;2023-07-20T02:55:05;13.30;99.90
57026;DHT22;43961;52.940;6.834;2023-07-20T02:57:31;13.10;99.90
57026;DHT22;43961;52.940;6.834;2023-07-20T02:59:56;13.10;99.90
57026;DHT22;43961;52.940;6.834;2023-07-20T03:02:22;13.10;99.90
57026;DHT22;43961;52.940;6.834;2023-07-20T03:04:48;13.10;99.90
57026;DHT22;43961;52.940;6.834;2023-07-20T03:07:13;13.00;99.90
57026;DHT22;43961;52.940;6.834;2023-07-20T03:09:39;13.10;99.90
57026;DHT22;43961;52.940;6.834;2023-07-20T03:12:06;12.90;99.90
57026;DHT22;43961;52.940;6.834;2023-07-20T03:14:32;12.90;99.90
57026;DHT22;43961;52.940;6.834;2023-07-20T03:16:58;13.00;99.90
57026;DHT22;43961;52.940;6.834;2023-07-20T03:19:24;12.90;99.90
57026;DHT22;43961;52.940;6.834;2023-07-20T03:25:30;13.00;99.90
57026;DHT22;43961;52.940;6.834;2023-07-20T03:27:56;12.70;99.90
57026;DHT22;43961;52.940;6.834;2023-07-20T03:30:22;12.60;99.90
57026;DHT22;43961;52.940;6.834;2023-07-20T03:32:48;12.80;99.90
57026;DHT22;43961;52.940;6.834;2023-07-20T03:35:14;12.70;99.90
57026;DHT22;43961;52.940;6.834;2023-07-20T03:37:41;12.60;99.90
57026;DHT22;43961;52.940;6.834;2023-07-20T03:40:07;12.40;99.90
57026;DHT22;43961;52.940;6.834;2023-07-20T03:42:33;12.40;99.90
57026;DHT22;43961;52.940;6.834;2023-07-20T03:44:59;12.40;99.90
57026;DHT22;43961;52.940;6.834;2023-07-20T03:47:26;12.50;99.90
57026;DHT22;43961;52.940;6.834;2023-07-20T03:49:51;12.30;99.90
57026;DHT22;43961;52.940;6.834;2023-07-20T03:52:17;12.40;99.90
57026;DHT22;43961;52.940;6.834;2023-07-20T03:54:43;12.30;99.90
57026;DHT22;43961;52.940;6.834;2023-07-20T03:57:09;12.40;99.90
57026;DHT22;43961;52.940;6.834;2023-07-20T03:59:36;12.40;99.90
57026;DHT22;43961;52.940;6.834;2023-07-20T04:02:02;12.40;99.90
57026;DHT22;43961;52.940;6.834;2023-07-20T04:04:28;12.30;99.90
57026;DHT22;43961;52.940;6.834;2023-07-20T04:06:53;12.40;99.90
57026;DHT22;43961;52.940;6.834;2023-07-20T04:09:19;12.30;99.90
57026;DHT22;43961;52.940;6.834;2023-07-20T04:11:45;12.40;99.90
57026;DHT22;43961;52.940;6.834;2023-07-20T04:14:10;12.40;99.90
57026;DHT22;43961;52.940;6.834;2023-07-20T04:16:36;12.50;99.90
57026;DHT22;43961;52.940;6.834;2023-07-20T04:19:02;12.40;99.90
57026;DHT22;43961;52.940;6.834;2023-07-20T04:21:28;12.70;99.90
57026;DHT22;43961;52.940;6.834;2023-07-20T04:23:54;12.70;99.90
57026;DHT22;43961;52.940;6.834;2023-07-20T04:26:19;12.70;99.90
57026;DHT22;43961;52.940;6.834;2023-07-20T04:28:45;12.70;99.90
57026;DHT22;43961;52.940;6.834;2023-07-20T04:31:15;12.60;99.90
57026;DHT22;43961;52.940;6.834;2023-07-20T04:33:41;12.60;99.90
57026;DHT22;43961;52.940;6.834;2023-07-20T04:36:07;12.70;99.90
57026;DHT22;43961;52.940;6.834;2023-07-20T04:38:34;12.70;99.90
57026;DHT22;43961;52.940;6.834;2023-07-20T04:41:00;12.60;99.90
57026;DHT22;43961;52.940;6.834;2023-07-20T04:43:25;12.90;99.90
57026;DHT22;43961;52.940;6.834;2023-07-20T04:45:52;12.90;99.90
57026;DHT22;43961;52.940;6.834;2023-07-20T04:48:18;13.10;99.90
57026;DHT22;43961;52.940;6.834;2023-07-20T04:50:45;12.90;99.90
57026;DHT22;43961;52.940;6.834;2023-07-20T04:53:14;13.00;99.90
57026;DHT22;43961;52.940;6.834;2023-07-20T04:55:40;13.00;99.90
57026;DHT22;43961;52.940;6.834;2023-07-20T04:58:06;12.90;99.90
57026;DHT22;43961;52.940;6.834;2023-07-20T05:00:37;13.10;99.90
57026;DHT22;43961;52.940;6.834;2023-07-20T05:03:03;13.10;99.90
57026;DHT22;43961;52.940;6.834;2023-07-20T05:05:30;13.10;99.90
57026;DHT22;43961;52.940;6.834;2023-07-20T05:07:57;12.90;99.90
57026;DHT22;43961;52.940;6.834;2023-07-20T05:10:23;12.90;99.90
57026;DHT22;43961;52.940;6.834;2023-07-20T05:12:49;13.20;99.90
57026;DHT22;43961;52.940;6.834;2023-07-20T05:15:14;13.20;99.90
57026;DHT22;43961;52.940;6.834;2023-07-20T05:17:41;13.10;99.90
57026;DHT22;43961;52.940;6.834;2023-07-20T05:20:07;13.00;99.90
57026;DHT22;43961;52.940;6.834;2023-07-20T05:22:36;13.00;99.90
57026;DHT22;43961;52.940;6.834;2023-07-20T05:25:08;13.10;99.90
57026;DHT22;43961;52.940;6.834;2023-07-20T05:27:38;13.10;99.90
57026;DHT22;43961;52.940;6.834;2023-07-20T05:30:05;13.20;99.90
57026;DHT22;43961;52.940;6.834;2023-07-20T05:32:32;13.10;99.90
57026;DHT22;43961;52.940;6.834;2023-07-20T05:34:58;13.40;99.90
57026;DHT22;43961;52.940;6.834;2023-07-20T05:37:24;13.20;99.90
57026;DHT22;43961;52.940;6.834;2023-07-20T05:39:50;13.40;99.90
57026;DHT22;43961;52.940;6.834;2023-07-20T05:42:15;13.30;99.90
57026;DHT22;43961;52.940;6.834;2023-07-20T05:44:41;13.50;99.90
57026;DHT22;43961;52.940;6.834;2023-07-20T05:47:07;13.40;99.90
57026;DHT22;43961;52.940;6.834;2023-07-20T05:49:34;13.50;99.90
57026;DHT22;43961;52.940;6.834;2023-07-20T05:52:00;13.50;99.90
57026;DHT22;43961;52.940;6.834;2023-07-20T05:54:26;13.50;99.90
57026;DHT22;43961;52.940;6.834;2023-07-20T05:56:52;13.60;99.90
57026;DHT22;43961;52.940;6.834;2023-07-20T05:59:18;13.60;99.90
57026;DHT22;43961;52.940;6.834;2023-07-20T06:01:45;13.60;99.90
57026;DHT22;43961;52.940;6.834;2023-07-20T06:04:12;13.70;99.90
57026;DHT22;43961;52.940;6.834;2023-07-20T06:06:41;13.90;99.90
57026;DHT22;43961;52.940;6.834;2023-07-20T06:09:07;14.20;99.90
57026;DHT22;43961;52.940;6.834;2023-07-20T06:11:38;14.10;99.90
57026;DHT22;43961;52.940;6.834;2023-07-20T06:14:04;14.30;99.90
57026;DHT22;43961;52.940;6.834;2023-07-20T06:16:29;14.30;99.90
57026;DHT22;43961;52.940;6.834;2023-07-20T06:18:55;14.40;99.90
57026;DHT22;43961;52.940;6.834;2023-07-20T06:21:21;14.70;99.90
57026;DHT22;43961;52.940;6.834;2023-07-20T06:23:47;14.80;99.90
57026;DHT22;43961;52.940;6.834;2023-07-20T06:26:13;14.70;99.90
57026;DHT22;43961;52.940;6.834;2023-07-20T06:28:38;14.80;99.90
57026;DHT22;43961;52.940;6.834;2023-07-20T06:31:04;15.00;99.90
57026;DHT22;43961;52.940;6.834;2023-07-20T06:33:30;15.00;99.90
57026;DHT22;43961;52.940;6.834;2023-07-20T06:35:56;15.20;99.90
57026;DHT22;43961;52.940;6.834;2023-07-20T06:38:22;15.30;99.90
57026;DHT22;43961;52.940;6.834;2023-07-20T06:40:52;15.50;99.90
57026;DHT22;43961;52.940;6.834;2023-07-20T06:43:17;15.30;99.90
57026;DHT22;43961;52.940;6.834;2023-07-20T06:45:43;15.60;99.90
57026;DHT22;43961;52.940;6.834;2023-07-20T06:48:09;15.50;99.90
57026;DHT22;43961;52.940;6.834;2023-07-20T06:50:35;15.60;99.90
57026;DHT22;43961;52.940;6.834;2023-07-20T06:53:01;16.00;99.90
57026;DHT22;43961;52.940;6.834;2023-07-20T06:55:29;16.10;99.90
57026;DHT22;43961;52.940;6.834;2023-07-20T06:57:55;16.60;99.90
57026;DHT22;43961;52.940;6.834;2023-07-20T07:00:20;16.70;99.90
57026;DHT22;43961;52.940;6.834;2023-07-20T07:02:46;16.70;99.90
57026;DHT22;43961;52.940;6.834;2023-07-20T07:05:14;16.80;99.90
57026;DHT22;43961;52.940;6.834;2023-07-20T07:07:41;17.30;99.90
57026;DHT22;43961;52.940;6.834;2023-07-20T07:10:07;17.30;99.90
57026;DHT22;43961;52.940;6.834;2023-07-20T07:12:33;17.50;99.90
57026;DHT22;43961;52.940;6.834;2023-07-20T07:15:00;18.10;99.90
57026;DHT22;43961;52.940;6.834;2023-07-20T07:17:26;18.10;99.90
57026;DHT22;43961;52.940;6.834;2023-07-20T07:19:52;18.50;99.90
57026;DHT22;43961;52.940;6.834;2023-07-20T07:22:20;18.90;99.90
57026;DHT22;43961;52.940;6.834;2023-07-20T07:24:47;18.70;99.90
57026;DHT22;43961;52.940;6.834;2023-07-20T07:27:13;19.30;99.90
57026;DHT22;43961;52.940;6.834;2023-07-20T07:29:38;19.20;99.90
57026;DHT22;43961;52.940;6.834;2023-07-20T07:32:04;19.70;99.90
57026;DHT22;43961;52.940;6.834;2023-07-20T07:34:30;19.50;99.90
57026;DHT22;43961;52.940;6.834;2023-07-20T07:36:59;19.70;99.90
57026;DHT22;43961;52.940;6.834;2023-07-20T07:39:25;20.10;99.90
57026;DHT22;43961;52.940;6.834;2023-07-20T07:41:51;20.10;99.90
57026;DHT22;43961;52.940;6.834;2023-07-20T07:44:18;20.70;99.90
57026;DHT22;43961;52.940;6.834;2023-07-20T07:46:43;20.50;99.90
57026;DHT22;43961;52.940;6.834;2023-07-20T07:49:09;20.80;99.90
57026;DHT22;43961;52.940;6.834;2023-07-20T07:51:34;21.20;99.90
57026;DHT22;43961;52.940;6.834;2023-07-20T07:54:00;20.90;99.90
57026;DHT22;43961;52.940;6.834;2023-07-20T07:56:26;21.20;99.90
57026;DHT22;43961;52.940;6.834;2023-07-20T07:58:52;20.80;99.90
57026;DHT22;43961;52.940;6.834;2023-07-20T08:01:18;20.80;99.90
57026;DHT22;43961;52.940;6.834;2023-07-20T08:03:47;20.60;99.90
57026;DHT22;43961;52.940;6.834;2023-07-20T08:06:16;20.70;99.90
57026;DHT22;43961;52.940;6.834;2023-07-20T08:08:42;20.90;99.90
57026;DHT22;43961;52.940;6.834;2023-07-20T08:11:10;21.10;99.90
57026;DHT22;43961;52.940;6.834;2023-07-20T08:13:36;21.00;99.90
57026;DHT22;43961;52.940;6.834;2023-07-20T08:16:02;21.40;99.90
57026;DHT22;43961;52.940;6.834;2023-07-20T08:18:28;21.40;99.90
57026;DHT22;43961;52.940;6.834;2023-07-20T08:24:34;22.20;99.90
57026;DHT22;43961;52.940;6.834;2023-07-20T08:27:00;22.20;99.90
57026;DHT22;43961;52.940;6.834;2023-07-20T08:29:26;22.50;99.90
57026;DHT22;43961;52.940;6.834;2023-07-20T08:31:51;22.30;99.90
57026;DHT22;43961;52.940;6.834;2023-07-20T08:34:17;22.40;99.90
57026;DHT22;43961;52.940;6.834;2023-07-20T08:36:43;22.60;99.90
57026;DHT22;43961;52.940;6.834;2023-07-20T08:39:08;22.90;99.90
57026;DHT22;43961;52.940;6.834;2023-07-20T08:41:34;22.70;99.90
57026;DHT22;43961;52.940;6.834;2023-07-20T08:44:01;22.90;99.90
57026;DHT22;43961;52.940;6.834;2023-07-20T08:46:27;23.40;99.90
57026;DHT22;43961;52.940;6.834;2023-07-20T08:48:55;23.30;99.90
57026;DHT22;43961;52.940;6.834;2023-07-20T08:51:21;23.70;99.90
57026;DHT22;43961;52.940;6.834;2023-07-20T08:53:48;23.60;99.90
57026;DHT22;43961;52.940;6.834;2023-07-20T08:56:15;23.70;99.90
57026;DHT22;43961;52.940;6.834;2023-07-20T08:58:43;23.70;99.90
57026;DHT22;43961;52.940;6.834;2023-07-20T09:01:10;23.80;99.90
57026;DHT22;43961;52.940;6.834;2023-07-20T09:03:36;23.80;99.90
57026;DHT22;43961;52.940;6.834;2023-07-20T09:06:05;24.00;99.90
57026;DHT22;43961;52.940;6.834;2023-07-20T09:08:31;24.10;99.90
57026;DHT22;43961;52.940;6.834;2023-07-20T09:10:57;24.40;99.90
57026;DHT22;43961;52.940;6.834;2023-07-20T09:13:25;24.40;99.90
57026;DHT22;43961;52.940;6.834;2023-07-20T09:15:54;24.50;99.90
57026;DHT22;43961;52.940;6.834;2023-07-20T09:18:28;24.60;99.90
57026;DHT22;43961;52.940;6.834;2023-07-20T09:21:05;24.50;99.90
57026;DHT22;43961;52.940;6.834;2023-07-20T09:23:32;24.50;99.90
57026;DHT22;43961;52.940;6.834;2023-07-20T09:25:58;24.50;99.90
57026;DHT22;43961;52.940;6.834;2023-07-20T09:28:24;24.70;99.90
57026;DHT22;43961;52.940;6.834;2023-07-20T09:30:50;24.70;99.90
57026;DHT22;43961;52.940;6.834;2023-07-20T09:33:21;24.90;99.90
57026;DHT22;43961;52.940;6.834;2023-07-20T09:35:46;25.00;99.90
57026;DHT22;43961;52.940;6.834;2023-07-20T09:38:14;25.00;99.90
57026;DHT22;43961;52.940;6.834;2023-07-20T09:40:41;25.20;99.90
57026;DHT22;43961;52.940;6.834;2023-07-20T09:43:10;25.10;99.90
57026;DHT22;43961;52.940;6.834;2023-07-20T09:45:40;25.00;99.90
57026;DHT22;43961;52.940;6.834;2023-07-20T09:48:07;25.00;99.90
57026;DHT22;43961;52.940;6.834;2023-07-20T09:50:34;25.10;99.90
57026;DHT22;43961;52.940;6.834;2023-07-20T09:53:01;25.10;99.90
57026;DHT22;43961;52.940;6.834;2023-07-20T09:59:15;25.60;99.90
57026;DHT22;43961;52.940;6.834;2023-07-20T10:01:42;25.20;99.90
57026;DHT22;43961;52.940;6.834;2023-07-20T10:04:11;25.20;99.90
57026;DHT22;43961;52.940;6.834;2023-07-20T10:06:42;25.30;99.90
57026;DHT22;43961;52.940;6.834;2023-07-20T10:09:10;25.60;99.90
57026;DHT22;43961;52.940;6.834;2023-07-20T10:11:42;25.80;99.90
57026;DHT22;43961;52.940;6.834;2023-07-20T10:14:08;26.10;99.90
57026;DHT22;43961;52.940;6.834;2023-07-20T10:16:41;26.00;99.90
57026;DHT22;43961;52.940;6.834;2023-07-20T10:19:39;26.10;99.90
57026;DHT22;43961;52.940;6.834;2023-07-20T10:22:20;26.20;99.90
57026;DHT22;43961;52.940;6.834;2023-07-20T10:24:49;26.00;99.90
57026;DHT22;43961;52.940;6.834;2023-07-20T10:27:15;25.90;99.90
57026;DHT22;43961;52.940;6.834;2023-07-20T10:29:41;25.90;99.90
57026;DHT22;43961;52.940;6.834;2023-07-20T10:32:09;26.00;99.90
57026;DHT22;43961;52.940;6.834;2023-07-20T10:34:34;26.10;99.90
57026;DHT22;43961;52.940;6.834;2023-07-20T10:37:00;26.10;99.90
57026;DHT22;43961;52.940;6.834;2023-07-20T10:39:27;26.40;99.90
57026;DHT22;43961;52.940;6.834;2023-07-20T10:42:07;26.40;99.90
57026;DHT22;43961;52.940;6.834;2023-07-20T10:44:33;26.60;99.90
57026;DHT22;43961;52.940;6.834;2023-07-20T10:47:08;26.50;99.90
57026;DHT22;43961;52.940;6.834;2023-07-20T10:49:34;26.30;99.90
57026;DHT22;43961;52.940;6.834;2023-07-20T10:52:04;26.20;99.90
57026;DHT22;43961;52.940;6.834;2023-07-20T10:56:57;25.90;99.90
57026;DHT22;43961;52.940;6.834;2023-07-20T11:01:49;25.40;99.90
57026;DHT22;43961;52.940;6.834;2023-07-20T11:04:15;25.40;99.90
57026;DHT22;43961;52.940;6.834;2023-07-20T11:06:44;25.30;99.90
57026;DHT22;43961;52.940;6.834;2023-07-20T11:09:10;25.10;99.90
57026;DHT22;43961;52.940;6.834;2023-07-20T11:11:38;24.90;99.90
57026;DHT22;43961;52.940;6.834;2023-07-20T11:14:06;24.90;99.90
57026;DHT22;43961;52.940;6.834;2023-07-20T11:16:39;24.70;99.90
57026;DHT22;43961;52.940;6.834;2023-07-20T11:19:13;24.70;99.90
57026;DHT22;43961;52.940;6.834;2023-07-20T11:21:41;24.60;99.90
57026;DHT22;43961;52.940;6.834;2023-07-20T11:24:07;24.40;99.90
57026;DHT22;43961;52.940;6.834;2023-07-20T11:27:01;24.50;99.90
57026;DHT22;43961;52.940;6.834;2023-07-20T11:29:27;24.50;99.90
57026;DHT22;43961;52.940;6.834;2023-07-20T11:31:52;24.60;99.90
57026;DHT22;43961;52.940;6.834;2023-07-20T11:34:20;24.70;99.90
57026;DHT22;43961;52.940;6.834;2023-07-20T11:36:48;24.50;99.90
57026;DHT22;43961;52.940;6.834;2023-07-20T11:39:14;24.50;99.90
57026;DHT22;43961;52.940;6.834;2023-07-20T11:41:47;24.50;99.90
57026;DHT22;43961;52.940;6.834;2023-07-20T11:44:13;24.60;99.90
57026;DHT22;43961;52.940;6.834;2023-07-20T11:46:44;24.90;99.90
57026;DHT22;43961;52.940;6.834;2023-07-20T11:49:10;24.80;99.90
57026;DHT22;43961;52.940;6.834;2023-07-20T11:51:37;24.90;99.90
57026;DHT22;43961;52.940;6.834;2023-07-20T11:54:04;24.80;99.90
57026;DHT22;43961;52.940;6.834;2023-07-20T11:56:30;24.70;99.90
57026;DHT22;43961;52.940;6.834;2023-07-20T11:58:57;24.80;99.90
57026;DHT22;43961;52.940;6.834;2023-07-20T12:01:26;24.80;99.90
57026;DHT22;43961;52.940;6.834;2023-07-20T12:04:00;24.70;99.90
57026;DHT22;43961;52.940;6.834;2023-07-20T12:06:30;24.60;99.90
57026;DHT22;43961;52.940;6.834;2023-07-20T12:08:57;24.40;99.90
57026;DHT22;43961;52.940;6.834;2023-07-20T12:11:37;24.20;99.90
57026;DHT22;43961;52.940;6.834;2023-07-20T12:14:07;24.00;99.90
57026;DHT22;43961;52.940;6.834;2023-07-20T12:16:34;23.90;99.90
57026;DHT22;43961;52.940;6.834;2023-07-20T12:19:13;23.70;99.90
57026;DHT22;43961;52.940;6.834;2023-07-20T12:21:40;23.70;99.90
57026;DHT22;43961;52.940;6.834;2023-07-20T12:24:08;23.60;99.90
57026;DHT22;43961;52.940;6.834;2023-07-20T12:26:37;23.40;99.90
57026;DHT22;43961;52.940;6.834;2023-07-20T12:29:03;23.30;99.90
57026;DHT22;43961;52.940;6.834;2023-07-20T12:31:29;23.20;99.90
57026;DHT22;43961;52.940;6.834;2023-07-20T12:33:57;23.20;99.90
57026;DHT22;43961;52.940;6.834;2023-07-20T12:36:23;23.30;99.90
57026;DHT22;43961;52.940;6.834;2023-07-20T12:38:49;23.10;99.90
57026;DHT22;43961;52.940;6.834;2023-07-20T12:41:15;23.20;99.90
57026;DHT22;43961;52.940;6.834;2023-07-20T12:43:44;23.10;99.90
57026;DHT22;43961;52.940;6.834;2023-07-20T12:46:11;23.00;99.90
57026;DHT22;43961;52.940;6.834;2023-07-20T12:48:38;22.90;99.90
57026;DHT22;43961;52.940;6.834;2023-07-20T12:51:05;22.90;99.90
57026;DHT22;43961;52.940;6.834;2023-07-20T12:53:32;23.10;99.90
57026;DHT22;43961;52.940;6.834;2023-07-20T12:56:01;23.00;99.90
57026;DHT22;43961;52.940;6.834;2023-07-20T12:58:27;23.20;99.90
57026;DHT22;43961;52.940;6.834;2023-07-20T13:00:53;23.20;99.90
57026;DHT22;43961;52.940;6.834;2023-07-20T13:03:19;23.20;99.90
57026;DHT22;43961;52.940;6.834;2023-07-20T13:05:48;23.00;99.90
57026;DHT22;43961;52.940;6.834;2023-07-20T13:08:14;23.00;99.90
57026;DHT22;43961;52.940;6.834;2023-07-20T13:10:41;23.10;99.90
57026;DHT22;43961;52.940;6.834;2023-07-20T13:13:07;23.20;99.90
57026;DHT22;43961;52.940;6.834;2023-07-20T13:15:41;23.10;99.90
57026;DHT22;43961;52.940;6.834;2023-07-20T13:18:06;23.00;99.90
57026;DHT22;43961;52.940;6.834;2023-07-20T13:20:32;23.00;99.90
57026;DHT22;43961;52.940;6.834;2023-07-20T13:22:58;23.10;99.90
57026;DHT22;43961;52.940;6.834;2023-07-20T13:25:24;23.10;99.90
57026;DHT22;43961;52.940;6.834;2023-07-20T13:27:50;23.20;99.90
57026;DHT22;43961;52.940;6.834;2023-07-20T13:30:16;23.20;99.90
57026;DHT22;43961;52.940;6.834;2023-07-20T13:32:43;23.30;99.90
57026;DHT22;43961;52.940;6.834;2023-07-20T13:35:12;23.30;99.90
57026;DHT22;43961;52.940;6.834;2023-07-20T13:37:38;23.20;99.90
57026;DHT22;43961;52.940;6.834;2023-07-20T13:40:04;23.30;99.90
57026;DHT22;43961;52.940;6.834;2023-07-20T13:42:34;23.20;99.90
57026;DHT22;43961;52.940;6.834;2023-07-20T13:45:00;23.30;99.90
57026;DHT22;43961;52.940;6.834;2023-07-20T13:47:26;23.30;99.90
57026;DHT22;43961;52.940;6.834;2023-07-20T13:49:52;23.30;99.90
57026;DHT22;43961;52.940;6.834;2023-07-20T13:52:17;23.30;99.90
57026;DHT22;43961;52.940;6.834;2023-07-20T13:54:43;23.30;99.90
57026;DHT22;43961;52.940;6.834;2023-07-20T13:57:09;23.20;99.90
57026;DHT22;43961;52.940;6.834;2023-07-20T13:59:35;23.10;99.90
57026;DHT22;43961;52.940;6.834;2023-07-20T14:02:00;23.00;99.90
57026;DHT22;43961;52.940;6.834;2023-07-20T14:04:26;22.90;99.90
57026;DHT22;43961;52.940;6.834;2023-07-20T14:06:52;22.90;99.90
57026;DHT22;43961;52.940;6.834;2023-07-20T14:09:17;22.80;99.90
57026;DHT22;43961;52.940;6.834;2023-07-20T14:11:43;22.80;99.90
57026;DHT22;43961;52.940;6.834;2023-07-20T14:14:10;22.70;99.90
57026;DHT22;43961;52.940;6.834;2023-07-20T14:16:36;22.60;99.90
57026;DHT22;43961;52.940;6.834;2023-07-20T14:19:01;22.50;99.90
57026;DHT22;43961;52.940;6.834;2023-07-20T14:21:27;22.30;99.90
57026;DHT22;43961;52.940;6.834;2023-07-20T14:23:54;22.20;99.90
57026;DHT22;43961;52.940;6.834;2023-07-20T14:26:19;22.00;99.90
57026;DHT22;43961;52.940;6.834;2023-07-20T14:28:45;22.00;99.90
57026;DHT22;43961;52.940;6.834;2023-07-20T14:31:11;21.90;99.90
57026;DHT22;43961;52.940;6.834;2023-07-20T14:33:37;21.90;99.90
57026;DHT22;43961;52.940;6.834;2023-07-20T14:36:03;22.00;99.90
57026;DHT22;43961;52.940;6.834;2023-07-20T14:38:30;22.00;99.90
57026;DHT22;43961;52.940;6.834;2023-07-20T14:40:57;21.90;99.90
57026;DHT22;43961;52.940;6.834;2023-07-20T14:43:22;22.00;99.90
57026;DHT22;43961;52.940;6.834;2023-07-20T14:45:48;22.10;99.90
57026;DHT22;43961;52.940;6.834;2023-07-20T14:48:14;22.10;99.90
57026;DHT22;43961;52.940;6.834;2023-07-20T14:50:40;22.10;99.90
57026;DHT22;43961;52.940;6.834;2023-07-20T14:53:06;22.10;99.90
57026;DHT22;43961;52.940;6.834;2023-07-20T14:55:33;22.20;99.90
57026;DHT22;43961;52.940;6.834;2023-07-20T14:57:59;22.40;99.90
57026;DHT22;43961;52.940;6.834;2023-07-20T15:00:24;22.30;99.90
57026;DHT22;43961;52.940;6.834;2023-07-20T15:02:50;22.40;99.90
57026;DHT22;43961;52.940;6.834;2023-07-20T15:05:22;22.50;99.90
57026;DHT22;43961;52.940;6.834;2023-07-20T15:07:49;22.40;99.90
57026;DHT22;43961;52.940;6.834;2023-07-20T15:10:15;22.40;99.90
57026;DHT22;43961;52.940;6.834;2023-07-20T15:12:40;22.40;99.90
57026;DHT22;43961;52.940;6.834;2023-07-20T15:17:34;22.20;99.90
57026;DHT22;43961;52.940;6.834;2023-07-20T15:20:04;21.90;99.90
57026;DHT22;43961;52.940;6.834;2023-07-20T15:22:34;21.80;99.90
57026;DHT22;43961;52.940;6.834;2023-07-20T15:25:02;21.80;99.90
57026;DHT22;43961;52.940;6.834;2023-07-20T15:27:28;21.70;99.90
57026;DHT22;43961;52.940;6.834;2023-07-20T15:29:54;21.70;99.90
57026;DHT22;43961;52.940;6.834;2023-07-20T15:32:19;21.50;99.90
57026;DHT22;43961;52.940;6.834;2023-07-20T15:34:46;21.60;99.90
57026;DHT22;43961;52.940;6.834;2023-07-20T15:37:12;21.60;99.90
57026;DHT22;43961;52.940;6.834;2023-07-20T15:39:38;21.70;99.90
57026;DHT22;43961;52.940;6.834;2023-07-20T15:42:04;21.70;99.90
57026;DHT22;43961;52.940;6.834;2023-07-20T15:44:30;21.80;99.90
57026;DHT22;43961;52.940;6.834;2023-07-20T15:46:56;21.80;99.90
57026;DHT22;43961;52.940;6.834;2023-07-20T15:49:22;21.80;99.90
57026;DHT22;43961;52.940;6.834;2023-07-20T15:51:50;21.90;99.90
57026;DHT22;43961;52.940;6.834;2023-07-20T15:54:16;21.90;99.90
57026;DHT22;43961;52.940;6.834;2023-07-20T15:56:43;22.00;99.90
57026;DHT22;43961;52.940;6.834;2023-07-20T15:59:11;21.90;99.90
57026;DHT22;43961;52.940;6.834;2023-07-20T16:01:37;21.80;99.90